Terminal Aerodrome Forecast
Issued by NWS

Home | Current Version | Previous Version | Text Only | Print | Product List | Glossary On
Versions: 1 2 3 4 5 6 7 8 9 10 11 12 13 14 15 16 17 18 19 20
211
FTUS43 KJKL 211126
TAFSME
TAF
KSME 211126Z 2112/2212 26004KT P6SM BKN025 BKN040
     FM211500 27007KT P6SM VCTS BKN025CB OVC040
     FM211800 33006KT P6SM VCTS BKN035CB BKN050
     FM220300 36008KT 6SM SHRA OVC015=

USA.gov is the U.S. government's official web portal to all federal, state and local government web resources and services.